YQW weather

North Battleford Airport
North Battleford, Saskatchewan, Canada

Public forecast

Using degrees Celsius for public forecast. Weather courtesy of forecast.io.

METAR (pilot weather report)

Retrieved 2019/04/24 05:00 UTC (26 minutes ago):

CYQW 240500Z AUTO 32008KT 9SM CLR 08/M06 A2977 RMK SLP092

TAF (pilot weather forecast)

Forecast is more than 12 hours old.

Retrieved 2019/04/23 00:42 UTC (1 day ago):

TAF CYQW 232338Z 2400/2412 30015G25KT P6SM FEW080 SCT250 BECMG 2401/2403 31012KT RMK FCST BASED ON AUTO OBS. NXT FCST BY 240600Z